• Join FlightAware (Why Join?)
  • Login
  • US Flag 
06:13PM EDT


 

Airport Tracker/Info


-or-


 

Live Flight TrackerFlight Track Log ✈ ASQ6124 ✈ 23-Apr-2013 ✈ KORD - KORF

Flight Track Log - Related Links

Times and Time Zones

All times are in EDT time to prevent confusion due to time zone crossing. See the ASQ6124 flight status page for this flight to view local times or setup timezone preferences in your user account.

Time Position Orientation Groundspeed Altitude Reporting Facility
EDT Latitude Longitude Course Direction KTS MPH feet Rate Location/Type
08:57AM 41.9167 -87.8833 155° Southeast 178 205 3,200  Level Chicago TRACON
08:58AM 41.8833 -87.8500 143° Southeast 213 245 5,200 2,220 Climbing Chicago TRACON
08:59AM 41.8167 -87.8000 151° Southeast 254 292 7,500 2,220 Climbing Chicago TRACON
09:01AM 41.6772 -87.7244 158° South 282 325 12,000 1,800 Climbing Chicago Center
09:02AM 41.5978 -87.6850 160° South 303 349 13,100 1,080 Climbing Chicago Center
09:03AM 41.9445 -87.8838 155° Southeast  Level FlightAware Approximate
09:03AM 41.5050 -87.6572 167° South 336 387 14,300  Level Chicago Center
09:04AM 41.4092 -87.6267 167° South 347 399 15,700 1,380 Climbing Chicago Center
09:06AM 41.3111 -87.5964 167° South 356 410 17,200 1,320 Climbing Chicago Center
09:07AM 41.2125 -87.5664 167° South 362 417 18,500 1,260 Climbing Chicago Center
09:08AM 41.1117 -87.5344 167° South 368 423 19,800 1,200 Climbing Chicago Center
09:09AM 41.0083 -87.5036 167° South 377 434 21,000 1,320 Climbing Chicago Center
09:10AM 40.8806 -87.4644 167° South 392 451 22,600 1,440 Climbing Chicago Center
09:11AM 40.7714 -87.4308 167° South 401 461 24,000 1,140 Climbing Chicago Center
09:12AM 40.6619 -87.3975 167° South 406 467 25,000 480 Climbing Chicago Center
09:13AM 40.5458 -87.3631 167° South 426 490 25,000  Level Chicago Center
09:14AM 40.4269 -87.3097 161° South 458 527 25,000  Level Chicago Center
09:15AM 40.3306 -87.1892 136° Southeast 487 560 25,000  Level Chicago Center
09:16AM 40.2331 -87.0147 126° Southeast 497 572 25,000  Level Chicago Center
09:17AM 40.1522 -86.8700 126° Southeast 495 570 25,000  Level Chicago Center
09:18AM 40.0903 -86.7622 127° Southeast 495 570 25,000  Level Indianapolis Center
09:19AM 40.0097 -86.6194 126° Southeast 489 563 25,000  Level Indianapolis Center
09:20AM 39.9286 -86.4781 127° Southeast 486 559 25,000  Level Indianapolis Center
09:21AM 39.8469 -86.3347 127° Southeast 488 562 25,000  Level Indianapolis Center
09:22AM 39.7656 -86.1925 127° Southeast 488 562 25,000  Level Indianapolis Center
09:23AM 39.6836 -86.0511 127° Southeast 487 560 25,000  Level Indianapolis Center
09:24AM 39.6017 -85.9106 127° Southeast 486 559 25,000  Level Indianapolis Center
09:25AM 39.5200 -85.7686 127° Southeast 487 560 25,000  Level Indianapolis Center
09:26AM 39.4222 -85.6003 127° Southeast 486 559 25,000  Level Indianapolis Center
09:27AM 39.3428 -85.4661 127° Southeast 484 557 25,000  Level Indianapolis Center
09:28AM 39.2600 -85.3244 127° Southeast 489 563 25,000  Level Indianapolis Center
09:29AM 39.1731 -85.1781 127° Southeast 494 568 25,000  Level Indianapolis Center
09:30AM 39.0883 -85.0358 127° Southeast 497 572 25,000  Level Indianapolis Center
09:31AM 39.0028 -84.8928 128° Southeast 501 577 25,000  Level Indianapolis Center
09:32AM 38.9056 -84.7314 128° Southeast 501 577 25,000  Level Indianapolis Center
09:33AM 38.8172 -84.5836 127° Southeast 500 575 25,000  Level Indianapolis Center
09:34AM 38.7769 -84.4225 108° East 494 568 25,000  Level Indianapolis Center
09:35AM 38.7500 -84.2497 101° East 491 565 25,000  Level Indianapolis Center
09:36AM 38.7239 -84.0733 101° East 499 574 25,000  Level Indianapolis Center
09:37AM 38.6978 -83.9022 101° East 490 564 25,000  Level Indianapolis Center
09:38AM 38.6711 -83.7272 101° East 496 571 25,000  Level Indianapolis Center
09:39AM 38.6392 -83.5225 101° East 492 566 25,000  Level Indianapolis Center
09:40AM 38.6122 -83.3553 102° East 483 556 25,000  Level Indianapolis Center
09:41AM 38.5861 -83.1883 101° East 478 550 25,000  Level Indianapolis Center
09:42AM 38.5606 -83.0208 101° East 479 551 25,000  Level Indianapolis Center
09:43AM 38.5317 -82.8542 102° East 479 551 25,000  Level Indianapolis Center
09:44AM 38.5047 -82.6867 102° East 481 554 25,000  Level Indianapolis Center
09:45AM 38.4728 -82.4928 102° East 477 549 25,000  Level Indianapolis Center
09:46AM 38.4469 -82.3386 102° East 478 550 25,000  Level Indianapolis Center
09:47AM 38.4189 -82.1736 102° East 479 551 25,000  Level Indianapolis Center
09:49AM 38.3908 -82.0083 102° East 478 550 25,000  Level Indianapolis Center
09:50AM 38.3572 -81.8114 102° East 477 549 25,000  Level Indianapolis Center
09:51AM 38.3311 -81.6453 101° East 481 554 25,000  Level Indianapolis Center
09:52AM 38.3042 -81.4786 102° East 486 559 25,000  Level Indianapolis Center
09:53AM 38.2775 -81.3139 102° East 482 555 25,000  Level Indianapolis Center
09:54AM 38.2519 -81.1497 101° East 475 547 25,000  Level Indianapolis Center
09:55AM 38.2197 -80.9678 103° East 474 545 25,000  Level Washington Center
09:56AM 38.1917 -80.7992 102° East 474 545 25,000  Level Washington Center
09:57AM 38.1653 -80.6361 102° East 474 545 25,000  Level Washington Center
09:58AM 38.1422 -80.4894 101° East 474 545 25,000  Level Washington Center
09:59AM 38.1133 -80.3239 102° East 474 545 25,000  Level Washington Center
10:00AM 38.0864 -80.1586 102° East 474 545 25,000  Level Washington Center
10:01AM 38.0592 -79.9933 102° East 474 545 25,000  Level Washington Center
10:02AM 38.0281 -79.8122 102° East 474 545 25,000  Level Washington Center
10:03AM 38.0006 -79.6475 102° East 474 545 25,000  Level Washington Center
10:04AM 37.9706 -79.4825 103° East 474 545 25,000  Level Washington Center
10:05AM 37.9425 -79.3150 102° East 474 545 25,000  Level Washington Center
10:06AM 37.9119 -79.1503 103° East 474 545 25,000  Level Washington Center
10:07AM 37.8708 -78.9906 108° East 474 545 25,000  Level Washington Center
10:08AM 37.8289 -78.8467 110° East 479 551 25,000  Level Washington Center
10:09AM 37.7828 -78.6897 110° East 484 557 25,000 -720 Level Washington Center
10:10AM 37.7389 -78.5356 110° East 478 550 23,600 -1,500 Descending Washington Center
10:11AM 37.6944 -78.3817 110° East 467 537 22,100 -1,320 Descending Washington Center
10:12AM 37.6519 -78.2358 110° East 452 520 21,000 -600 Descending Washington Center
10:13AM 37.6031 -78.0769 111° Southeast 446 513 21,000 -420 Level Washington Center
10:14AM 37.5581 -77.9314 111° Southeast 441 507 20,200 -1,380 Descending Washington Center
10:15AM 37.5256 -77.7811 105° East 441 507 18,300 -1,800 Descending Washington Center
10:16AM 37.5156 -77.6314 95° East 430 495 16,600 -1,800 Descending Washington Center
10:17AM 37.5053 -77.4950 95° East 418 481 14,800 -1,320 Descending Washington Center
10:18AM 37.4969 -77.3586 94° East 400 460 14,000 -420 Descending Washington Center
10:19AM 37.4864 -77.2225 96° East 390 449 14,000  Level Washington Center
10:20AM 37.4756 -77.0914 96° East 385 443 14,000  Level Washington Center
10:20AM 37.4719 -77.0389 95° East 390 449 14,000  Level Washington Center
10:21AM 37.4667 -76.9708 96° East 385 443 14,000  Level Washington Center
10:21AM 37.4611 -76.8947 95° East 386 444 14,000  Level Washington Center
10:22AM 37.4575 -76.8475 95° East 385 443 14,000  Level Washington Center
10:22AM 37.4522 -76.7586 94° East 385 443 14,000  Level Washington Center
10:23AM 37.4464 -76.7008 97° East 385 443 14,000  Level Washington Center
10:23AM 37.4367 -76.6250 99° East 389 448 14,000  Level Washington Center
10:24AM 37.4289 -76.5672 100° East 385 443 14,000  Level Washington Center
10:24AM 37.4003 -76.4858 114° Southeast 391 450 14,000  Level Washington Center
10:25AM 37.3839 -76.4467 118° Southeast 385 443 14,000 -240 Level Washington Center
10:25AM 37.3447 -76.3678 122° Southeast 389 448 13,800 -720 Descending Washington Center
10:26AM 37.3283 -76.3283 118° Southeast 385 443 13,300 -2,040 Descending Washington Center
10:26AM 37.2703 -76.2494 133° Southeast 378 435 11,600 -1,920 Descending Washington Center
10:27AM 37.2558 -76.2364 144° Southeast 377 434 11,400 -1,440 Descending Washington Center
10:27AM 37.1850 -76.2306 176° South 325 374 10,300 -1,440 Descending Washington Center
10:28AM 37.1619 -76.2225 164° South 334 384 10,000 -1,500 Descending Washington Center
10:28AM 37.1100 -76.2247 182° South 293 337 9,000 -1,740 Descending Washington Center
10:29AM 37.0808 -76.2167 168° South 310 357 8,300 -1,920 Descending Washington Center
10:29AM 37.0306 -76.2164 180° South 293 337 7,100 -1,740 Descending Washington Center
10:30AM 36.9994 -76.2108 172° South 305 351 6,600 -1,620 Descending Washington Center
10:30AM 36.9553 -76.2442 211° Southwest 274 315 5,500 -1,740 Descending Washington Center
10:31AM 36.8944 -76.3061 219° Southwest 279 321 3,900 -1,620 Descending Washington Center